sensor_id;sensor_type;location;lat;lon;timestamp;temperature;humidity
44305;DHT22;30019;50.576;8.568;2023-02-01T00:01:20;3.90;99.90
44305;DHT22;30019;50.576;8.568;2023-02-01T00:03:46;3.90;99.90
44305;DHT22;30019;50.576;8.568;2023-02-01T00:06:11;4.00;99.90
44305;DHT22;30019;50.576;8.568;2023-02-01T00:08:37;3.90;99.90
44305;DHT22;30019;50.576;8.568;2023-02-01T00:11:08;3.90;99.90
44305;DHT22;30019;50.576;8.568;2023-02-01T00:13:36;4.00;99.90
44305;DHT22;30019;50.576;8.568;2023-02-01T00:18:35;3.90;99.90
44305;DHT22;30019;50.576;8.568;2023-02-01T00:21:01;4.00;99.90
44305;DHT22;30019;50.576;8.568;2023-02-01T00:23:27;4.00;99.90
44305;DHT22;30019;50.576;8.568;2023-02-01T00:25:53;4.00;99.90
44305;DHT22;30019;50.576;8.568;2023-02-01T00:28:19;4.00;99.90
44305;DHT22;30019;50.576;8.568;2023-02-01T00:30:44;4.00;99.90
44305;DHT22;30019;50.576;8.568;2023-02-01T00:33:10;4.00;99.90
44305;DHT22;30019;50.576;8.568;2023-02-01T00:35:36;4.10;99.90
44305;DHT22;30019;50.576;8.568;2023-02-01T00:38:02;4.10;99.90
44305;DHT22;30019;50.576;8.568;2023-02-01T00:40:27;4.20;99.90
44305;DHT22;30019;50.576;8.568;2023-02-01T00:42:53;4.20;99.90
44305;DHT22;30019;50.576;8.568;2023-02-01T00:45:19;4.30;99.90
44305;DHT22;30019;50.576;8.568;2023-02-01T00:47:45;4.30;99.90
44305;DHT22;30019;50.576;8.568;2023-02-01T00:50:10;4.30;99.90
44305;DHT22;30019;50.576;8.568;2023-02-01T00:52:36;4.30;99.90
44305;DHT22;30019;50.576;8.568;2023-02-01T00:55:02;4.40;99.90
44305;DHT22;30019;50.576;8.568;2023-02-01T00:57:28;4.40;99.90
44305;DHT22;30019;50.576;8.568;2023-02-01T00:59:53;4.40;99.90
44305;DHT22;30019;50.576;8.568;2023-02-01T01:02:19;4.40;99.90
44305;DHT22;30019;50.576;8.568;2023-02-01T01:04:44;4.40;99.90
44305;DHT22;30019;50.576;8.568;2023-02-01T01:07:10;4.50;99.90
44305;DHT22;30019;50.576;8.568;2023-02-01T01:09:35;4.50;99.90
44305;DHT22;30019;50.576;8.568;2023-02-01T01:12:01;4.50;99.90
44305;DHT22;30019;50.576;8.568;2023-02-01T01:14:29;4.50;99.90
44305;DHT22;30019;50.576;8.568;2023-02-01T01:16:54;4.50;99.90
44305;DHT22;30019;50.576;8.568;2023-02-01T01:19:20;4.50;99.90
44305;DHT22;30019;50.576;8.568;2023-02-01T01:21:45;4.60;99.90
44305;DHT22;30019;50.576;8.568;2023-02-01T01:24:11;4.60;99.90
44305;DHT22;30019;50.576;8.568;2023-02-01T01:26:37;4.50;99.90
44305;DHT22;30019;50.576;8.568;2023-02-01T01:29:03;4.50;99.90
44305;DHT22;30019;50.576;8.568;2023-02-01T01:31:29;4.60;99.90
44305;DHT22;30019;50.576;8.568;2023-02-01T01:33:57;4.60;99.90
44305;DHT22;30019;50.576;8.568;2023-02-01T01:36:24;4.60;99.90
44305;DHT22;30019;50.576;8.568;2023-02-01T01:38:53;4.60;99.90
44305;DHT22;30019;50.576;8.568;2023-02-01T01:41:24;4.60;99.90
44305;DHT22;30019;50.576;8.568;2023-02-01T01:46:35;4.60;99.90
44305;DHT22;30019;50.576;8.568;2023-02-01T01:52:02;4.50;99.90
44305;DHT22;30019;50.576;8.568;2023-02-01T01:54:44;4.60;99.90
44305;DHT22;30019;50.576;8.568;2023-02-01T01:57:26;4.60;99.90
44305;DHT22;30019;50.576;8.568;2023-02-01T02:00:06;4.60;99.90
44305;DHT22;30019;50.576;8.568;2023-02-01T02:02:35;4.60;99.90
44305;DHT22;30019;50.576;8.568;2023-02-01T02:05:01;4.60;99.90
44305;DHT22;30019;50.576;8.568;2023-02-01T02:07:31;4.60;99.90
44305;DHT22;30019;50.576;8.568;2023-02-01T02:09:57;4.60;99.90
44305;DHT22;30019;50.576;8.568;2023-02-01T02:12:23;4.60;99.90
44305;DHT22;30019;50.576;8.568;2023-02-01T02:14:49;4.70;99.90
44305;DHT22;30019;50.576;8.568;2023-02-01T02:17:28;4.70;99.90
44305;DHT22;30019;50.576;8.568;2023-02-01T02:28:24;4.80;99.90
44305;DHT22;30019;50.576;8.568;2023-02-01T02:34:05;4.80;99.90
44305;DHT22;30019;50.576;8.568;2023-02-01T02:37:08;4.80;99.90
44305;DHT22;30019;50.576;8.568;2023-02-01T02:45:34;4.60;99.90
44305;DHT22;30019;50.576;8.568;2023-02-01T02:48:44;4.70;99.90
44305;DHT22;30019;50.576;8.568;2023-02-01T02:51:19;4.70;99.90
44305;DHT22;30019;50.576;8.568;2023-02-01T02:54:16;4.80;99.90
44305;DHT22;30019;50.576;8.568;2023-02-01T02:57:04;4.80;99.90
44305;DHT22;30019;50.576;8.568;2023-02-01T02:59:51;4.70;99.90
44305;DHT22;30019;50.576;8.568;2023-02-01T03:02:37;4.70;99.90
44305;DHT22;30019;50.576;8.568;2023-02-01T03:05:22;4.80;99.90
44305;DHT22;30019;50.576;8.568;2023-02-01T03:12:54;4.70;99.90
44305;DHT22;30019;50.576;8.568;2023-02-01T03:15:41;4.70;99.90
44305;DHT22;30019;50.576;8.568;2023-02-01T03:20:52;4.60;99.90
44305;DHT22;30019;50.576;8.568;2023-02-01T03:23:20;4.60;99.90
44305;DHT22;30019;50.576;8.568;2023-02-01T03:25:48;4.50;99.90
44305;DHT22;30019;50.576;8.568;2023-02-01T03:28:15;4.50;99.90
44305;DHT22;30019;50.576;8.568;2023-02-01T03:30:44;4.50;99.90
44305;DHT22;30019;50.576;8.568;2023-02-01T03:33:20;4.50;99.90
44305;DHT22;30019;50.576;8.568;2023-02-01T03:36:01;4.40;99.90
44305;DHT22;30019;50.576;8.568;2023-02-01T03:38:41;4.40;99.90
44305;DHT22;30019;50.576;8.568;2023-02-01T03:41:20;4.40;99.90
44305;DHT22;30019;50.576;8.568;2023-02-01T03:46:48;4.60;99.90
44305;DHT22;30019;50.576;8.568;2023-02-01T03:49:22;4.50;99.90
44305;DHT22;30019;50.576;8.568;2023-02-01T03:51:51;4.50;99.90
44305;DHT22;30019;50.576;8.568;2023-02-01T03:54:18;4.60;99.90
44305;DHT22;30019;50.576;8.568;2023-02-01T03:56:45;4.60;99.90
44305;DHT22;30019;50.576;8.568;2023-02-01T03:59:13;4.60;99.90
44305;DHT22;30019;50.576;8.568;2023-02-01T04:01:39;4.60;99.90
44305;DHT22;30019;50.576;8.568;2023-02-01T04:04:06;4.60;99.90
44305;DHT22;30019;50.576;8.568;2023-02-01T04:06:31;4.60;99.90
44305;DHT22;30019;50.576;8.568;2023-02-01T04:08:57;4.60;99.90
44305;DHT22;30019;50.576;8.568;2023-02-01T04:11:22;4.60;99.90
44305;DHT22;30019;50.576;8.568;2023-02-01T04:13:48;4.60;99.90
44305;DHT22;30019;50.576;8.568;2023-02-01T04:16:13;4.70;99.90
44305;DHT22;30019;50.576;8.568;2023-02-01T04:18:39;4.70;99.90
44305;DHT22;30019;50.576;8.568;2023-02-01T04:21:05;4.70;99.90
44305;DHT22;30019;50.576;8.568;2023-02-01T04:23:30;4.70;99.90
44305;DHT22;30019;50.576;8.568;2023-02-01T04:26:02;4.70;99.90
44305;DHT22;30019;50.576;8.568;2023-02-01T04:28:28;4.70;99.90
44305;DHT22;30019;50.576;8.568;2023-02-01T04:30:53;4.70;99.90
44305;DHT22;30019;50.576;8.568;2023-02-01T04:33:19;4.70;99.90
44305;DHT22;30019;50.576;8.568;2023-02-01T04:35:44;4.70;99.90
44305;DHT22;30019;50.576;8.568;2023-02-01T04:38:10;4.70;99.90
44305;DHT22;30019;50.576;8.568;2023-02-01T04:40:36;4.70;99.90
44305;DHT22;30019;50.576;8.568;2023-02-01T04:43:03;4.70;99.90
44305;DHT22;30019;50.576;8.568;2023-02-01T04:45:29;4.60;99.90
44305;DHT22;30019;50.576;8.568;2023-02-01T04:47:55;4.50;99.90
44305;DHT22;30019;50.576;8.568;2023-02-01T04:50:20;4.40;99.90
44305;DHT22;30019;50.576;8.568;2023-02-01T04:52:46;4.40;99.90
44305;DHT22;30019;50.576;8.568;2023-02-01T04:55:12;4.50;99.90
44305;DHT22;30019;50.576;8.568;2023-02-01T04:57:39;4.50;99.90
44305;DHT22;30019;50.576;8.568;2023-02-01T05:00:07;4.50;99.90
44305;DHT22;30019;50.576;8.568;2023-02-01T05:02:33;4.50;99.90
44305;DHT22;30019;50.576;8.568;2023-02-01T05:04:59;4.50;99.90
44305;DHT22;30019;50.576;8.568;2023-02-01T05:07:24;4.50;99.90
44305;DHT22;30019;50.576;8.568;2023-02-01T05:09:50;4.50;99.90
44305;DHT22;30019;50.576;8.568;2023-02-01T05:12:16;4.50;99.90
44305;DHT22;30019;50.576;8.568;2023-02-01T05:15:00;4.50;99.90
44305;DHT22;30019;50.576;8.568;2023-02-01T05:17:25;4.40;99.90
44305;DHT22;30019;50.576;8.568;2023-02-01T05:19:51;4.40;99.90
44305;DHT22;30019;50.576;8.568;2023-02-01T05:22:17;4.40;99.90
44305;DHT22;30019;50.576;8.568;2023-02-01T05:24:43;4.40;99.90
44305;DHT22;30019;50.576;8.568;2023-02-01T05:27:09;4.50;99.90
44305;DHT22;30019;50.576;8.568;2023-02-01T05:29:35;4.40;99.90
44305;DHT22;30019;50.576;8.568;2023-02-01T05:32:00;4.40;99.90
44305;DHT22;30019;50.576;8.568;2023-02-01T05:34:26;4.40;99.90
44305;DHT22;30019;50.576;8.568;2023-02-01T05:36:52;4.40;99.90
44305;DHT22;30019;50.576;8.568;2023-02-01T05:39:17;4.30;99.90
44305;DHT22;30019;50.576;8.568;2023-02-01T05:41:43;4.40;99.90
44305;DHT22;30019;50.576;8.568;2023-02-01T05:44:10;4.40;99.90
44305;DHT22;30019;50.576;8.568;2023-02-01T05:46:35;4.50;99.90
44305;DHT22;30019;50.576;8.568;2023-02-01T05:49:01;4.40;99.90
44305;DHT22;30019;50.576;8.568;2023-02-01T05:51:27;4.40;99.90
44305;DHT22;30019;50.576;8.568;2023-02-01T05:53:52;4.50;99.90
44305;DHT22;30019;50.576;8.568;2023-02-01T05:56:18;4.50;99.90
44305;DHT22;30019;50.576;8.568;2023-02-01T05:58:43;4.50;99.90
44305;DHT22;30019;50.576;8.568;2023-02-01T06:01:09;4.50;99.90
44305;DHT22;30019;50.576;8.568;2023-02-01T06:03:35;4.50;99.90
44305;DHT22;30019;50.576;8.568;2023-02-01T06:06:01;4.50;99.90
44305;DHT22;30019;50.576;8.568;2023-02-01T06:08:27;4.50;99.90
44305;DHT22;30019;50.576;8.568;2023-02-01T06:11:01;4.50;99.90
44305;DHT22;30019;50.576;8.568;2023-02-01T06:13:26;4.50;99.90
44305;DHT22;30019;50.576;8.568;2023-02-01T06:15:52;4.50;99.90
44305;DHT22;30019;50.576;8.568;2023-02-01T06:18:18;4.50;99.90
44305;DHT22;30019;50.576;8.568;2023-02-01T06:20:43;4.50;99.90
44305;DHT22;30019;50.576;8.568;2023-02-01T06:23:09;4.60;99.90
44305;DHT22;30019;50.576;8.568;2023-02-01T06:25:35;4.60;99.90
44305;DHT22;30019;50.576;8.568;2023-02-01T06:28:01;4.50;99.90
44305;DHT22;30019;50.576;8.568;2023-02-01T06:30:26;4.50;99.90
44305;DHT22;30019;50.576;8.568;2023-02-01T06:32:52;4.50;99.90
44305;DHT22;30019;50.576;8.568;2023-02-01T06:35:19;4.50;99.90
44305;DHT22;30019;50.576;8.568;2023-02-01T06:37:44;4.50;99.90
44305;DHT22;30019;50.576;8.568;2023-02-01T06:40:11;4.50;99.90
44305;DHT22;30019;50.576;8.568;2023-02-01T06:42:36;4.60;99.90
44305;DHT22;30019;50.576;8.568;2023-02-01T06:45:02;4.60;99.90
44305;DHT22;30019;50.576;8.568;2023-02-01T06:47:28;4.60;99.90
44305;DHT22;30019;50.576;8.568;2023-02-01T06:49:53;4.60;99.90
44305;DHT22;30019;50.576;8.568;2023-02-01T06:52:19;4.60;99.90
44305;DHT22;30019;50.576;8.568;2023-02-01T06:54:44;4.60;99.90
44305;DHT22;30019;50.576;8.568;2023-02-01T06:57:10;4.70;99.90
44305;DHT22;30019;50.576;8.568;2023-02-01T06:59:36;4.80;99.90
44305;DHT22;30019;50.576;8.568;2023-02-01T07:02:01;4.70;99.90
44305;DHT22;30019;50.576;8.568;2023-02-01T07:04:27;4.70;99.90
44305;DHT22;30019;50.576;8.568;2023-02-01T07:06:53;4.70;99.90
44305;DHT22;30019;50.576;8.568;2023-02-01T07:09:19;4.80;99.90
44305;DHT22;30019;50.576;8.568;2023-02-01T07:11:44;4.70;99.90
44305;DHT22;30019;50.576;8.568;2023-02-01T07:14:10;4.70;99.90
44305;DHT22;30019;50.576;8.568;2023-02-01T07:16:36;4.70;99.90
44305;DHT22;30019;50.576;8.568;2023-02-01T07:19:02;4.70;99.90
44305;DHT22;30019;50.576;8.568;2023-02-01T07:21:27;4.80;99.90
44305;DHT22;30019;50.576;8.568;2023-02-01T07:23:54;4.80;99.90
44305;DHT22;30019;50.576;8.568;2023-02-01T07:26:19;4.80;99.90
44305;DHT22;30019;50.576;8.568;2023-02-01T07:28:45;4.80;99.90
44305;DHT22;30019;50.576;8.568;2023-02-01T07:31:14;4.80;99.90
44305;DHT22;30019;50.576;8.568;2023-02-01T07:33:47;4.70;99.90
44305;DHT22;30019;50.576;8.568;2023-02-01T07:36:15;4.80;99.90
44305;DHT22;30019;50.576;8.568;2023-02-01T07:38:41;4.80;99.90
44305;DHT22;30019;50.576;8.568;2023-02-01T07:41:08;4.80;99.90
44305;DHT22;30019;50.576;8.568;2023-02-01T07:43:34;4.90;99.90
44305;DHT22;30019;50.576;8.568;2023-02-01T07:46:00;4.90;99.90
44305;DHT22;30019;50.576;8.568;2023-02-01T07:48:26;5.00;99.90
44305;DHT22;30019;50.576;8.568;2023-02-01T07:51:31;5.00;99.90
44305;DHT22;30019;50.576;8.568;2023-02-01T07:53:50;5.00;99.90
44305;DHT22;30019;50.576;8.568;2023-02-01T07:56:18;5.00;99.90
44305;DHT22;30019;50.576;8.568;2023-02-01T07:58:51;5.10;99.90
44305;DHT22;30019;50.576;8.568;2023-02-01T08:01:24;5.10;99.90
44305;DHT22;30019;50.576;8.568;2023-02-01T08:06:18;5.10;99.90
44305;DHT22;30019;50.576;8.568;2023-02-01T08:08:45;5.10;99.90
44305;DHT22;30019;50.576;8.568;2023-02-01T08:11:13;5.20;99.90
44305;DHT22;30019;50.576;8.568;2023-02-01T08:13:39;5.10;99.90
44305;DHT22;30019;50.576;8.568;2023-02-01T08:16:06;5.20;99.90
44305;DHT22;30019;50.576;8.568;2023-02-01T08:18:33;5.30;99.90
44305;DHT22;30019;50.576;8.568;2023-02-01T08:21:25;5.30;99.90
44305;DHT22;30019;50.576;8.568;2023-02-01T08:23:49;5.30;99.90
44305;DHT22;30019;50.576;8.568;2023-02-01T08:26:18;5.30;99.90
44305;DHT22;30019;50.576;8.568;2023-02-01T08:28:46;5.40;99.90
44305;DHT22;30019;50.576;8.568;2023-02-01T08:31:14;5.30;99.90
44305;DHT22;30019;50.576;8.568;2023-02-01T08:33:41;5.20;99.90
44305;DHT22;30019;50.576;8.568;2023-02-01T08:36:08;5.30;99.90
44305;DHT22;30019;50.576;8.568;2023-02-01T08:38:38;5.30;99.90
44305;DHT22;30019;50.576;8.568;2023-02-01T08:41:09;5.30;99.90
44305;DHT22;30019;50.576;8.568;2023-02-01T08:43:35;5.30;99.90
44305;DHT22;30019;50.576;8.568;2023-02-01T08:46:01;5.30;99.90
44305;DHT22;30019;50.576;8.568;2023-02-01T08:48:27;5.30;99.90
44305;DHT22;30019;50.576;8.568;2023-02-01T08:50:53;5.30;99.90
44305;DHT22;30019;50.576;8.568;2023-02-01T08:53:18;5.40;99.90
44305;DHT22;30019;50.576;8.568;2023-02-01T08:55:46;5.40;99.90
44305;DHT22;30019;50.576;8.568;2023-02-01T08:58:12;5.40;99.90
44305;DHT22;30019;50.576;8.568;2023-02-01T09:00:39;5.40;99.90
44305;DHT22;30019;50.576;8.568;2023-02-01T09:03:05;5.30;99.90
44305;DHT22;30019;50.576;8.568;2023-02-01T09:05:34;5.30;99.90
44305;DHT22;30019;50.576;8.568;2023-02-01T09:07:59;5.40;99.90
44305;DHT22;30019;50.576;8.568;2023-02-01T09:10:25;5.40;99.90
44305;DHT22;30019;50.576;8.568;2023-02-01T09:12:51;5.40;99.90
44305;DHT22;30019;50.576;8.568;2023-02-01T09:15:17;5.50;99.90
44305;DHT22;30019;50.576;8.568;2023-02-01T09:17:43;5.50;99.90
44305;DHT22;30019;50.576;8.568;2023-02-01T09:20:09;5.50;99.90
44305;DHT22;30019;50.576;8.568;2023-02-01T09:22:35;5.50;99.90
44305;DHT22;30019;50.576;8.568;2023-02-01T09:25:00;5.50;99.90
44305;DHT22;30019;50.576;8.568;2023-02-01T09:27:26;5.60;99.90
44305;DHT22;30019;50.576;8.568;2023-02-01T09:29:52;5.60;99.90
44305;DHT22;30019;50.576;8.568;2023-02-01T09:32:22;5.60;99.90
44305;DHT22;30019;50.576;8.568;2023-02-01T09:34:49;5.60;99.90
44305;DHT22;30019;50.576;8.568;2023-02-01T09:37:15;5.70;99.90
44305;DHT22;30019;50.576;8.568;2023-02-01T09:39:40;5.70;99.90
44305;DHT22;30019;50.576;8.568;2023-02-01T09:48:00;5.80;99.90
44305;DHT22;30019;50.576;8.568;2023-02-01T09:50:35;5.80;99.90
44305;DHT22;30019;50.576;8.568;2023-02-01T09:53:14;5.80;99.90
44305;DHT22;30019;50.576;8.568;2023-02-01T09:55:45;5.70;99.90
44305;DHT22;30019;50.576;8.568;2023-02-01T10:00:57;5.80;99.90
44305;DHT22;30019;50.576;8.568;2023-02-01T10:03:26;5.70;99.90
44305;DHT22;30019;50.576;8.568;2023-02-01T10:09:05;5.70;99.90
44305;DHT22;30019;50.576;8.568;2023-02-01T10:28:16;5.50;99.90
44305;DHT22;30019;50.576;8.568;2023-02-01T10:30:45;5.50;99.90
44305;DHT22;30019;50.576;8.568;2023-02-01T10:33:23;5.50;99.90
44305;DHT22;30019;50.576;8.568;2023-02-01T10:35:55;5.50;99.90
44305;DHT22;30019;50.576;8.568;2023-02-01T10:38:28;5.50;99.90
44305;DHT22;30019;50.576;8.568;2023-02-01T10:41:17;5.50;99.90
44305;DHT22;30019;50.576;8.568;2023-02-01T10:43:42;5.60;99.90
44305;DHT22;30019;50.576;8.568;2023-02-01T10:46:08;5.60;99.90
44305;DHT22;30019;50.576;8.568;2023-02-01T10:48:35;5.60;99.90
44305;DHT22;30019;50.576;8.568;2023-02-01T10:51:12;5.60;99.90
44305;DHT22;30019;50.576;8.568;2023-02-01T10:53:53;5.70;99.90
44305;DHT22;30019;50.576;8.568;2023-02-01T10:56:25;5.70;99.90
44305;DHT22;30019;50.576;8.568;2023-02-01T10:58:52;5.70;99.90
44305;DHT22;30019;50.576;8.568;2023-02-01T11:01:34;5.70;99.90
44305;DHT22;30019;50.576;8.568;2023-02-01T11:04:02;5.70;99.90
44305;DHT22;30019;50.576;8.568;2023-02-01T11:06:36;5.80;99.90
44305;DHT22;30019;50.576;8.568;2023-02-01T11:11:31;5.80;99.90
44305;DHT22;30019;50.576;8.568;2023-02-01T11:14:10;5.80;99.90
44305;DHT22;30019;50.576;8.568;2023-02-01T11:16:39;5.90;99.90
44305;DHT22;30019;50.576;8.568;2023-02-01T11:19:05;6.00;99.90
44305;DHT22;30019;50.576;8.568;2023-02-01T11:21:32;5.90;99.90
44305;DHT22;30019;50.576;8.568;2023-02-01T11:24:02;5.90;99.90
44305;DHT22;30019;50.576;8.568;2023-02-01T11:26:29;6.00;99.90
44305;DHT22;30019;50.576;8.568;2023-02-01T11:29:02;6.00;99.90
44305;DHT22;30019;50.576;8.568;2023-02-01T11:31:29;6.00;99.90
44305;DHT22;30019;50.576;8.568;2023-02-01T11:34:08;6.00;99.90
44305;DHT22;30019;50.576;8.568;2023-02-01T11:36:37;6.10;99.90
44305;DHT22;30019;50.576;8.568;2023-02-01T11:41:59;6.20;99.90
44305;DHT22;30019;50.576;8.568;2023-02-01T11:44:37;6.20;99.90
44305;DHT22;30019;50.576;8.568;2023-02-01T11:47:22;6.20;99.90
44305;DHT22;30019;50.576;8.568;2023-02-01T11:49:50;6.10;99.90
44305;DHT22;30019;50.576;8.568;2023-02-01T12:01:07;6.20;99.90
44305;DHT22;30019;50.576;8.568;2023-02-01T12:14:40;6.60;99.90
44305;DHT22;30019;50.576;8.568;2023-02-01T12:17:51;6.70;99.90
44305;DHT22;30019;50.576;8.568;2023-02-01T12:20:34;6.60;99.90
44305;DHT22;30019;50.576;8.568;2023-02-01T12:34:26;6.70;99.90
44305;DHT22;30019;50.576;8.568;2023-02-01T12:40:06;6.90;99.90
44305;DHT22;30019;50.576;8.568;2023-02-01T12:42:32;7.00;99.90
44305;DHT22;30019;50.576;8.568;2023-02-01T12:45:07;7.00;99.90
44305;DHT22;30019;50.576;8.568;2023-02-01T12:48:00;7.00;99.90
44305;DHT22;30019;50.576;8.568;2023-02-01T12:50:49;7.10;99.90
44305;DHT22;30019;50.576;8.568;2023-02-01T12:55:57;7.30;99.90
44305;DHT22;30019;50.576;8.568;2023-02-01T12:58:25;7.30;99.90
44305;DHT22;30019;50.576;8.568;2023-02-01T13:01:45;7.40;99.90
44305;DHT22;30019;50.576;8.568;2023-02-01T13:04:17;7.30;99.90
44305;DHT22;30019;50.576;8.568;2023-02-01T13:07:07;7.20;99.90
44305;DHT22;30019;50.576;8.568;2023-02-01T13:12:59;7.00;99.90
44305;DHT22;30019;50.576;8.568;2023-02-01T13:15:12;6.90;99.90
44305;DHT22;30019;50.576;8.568;2023-02-01T13:17:40;7.00;99.90
44305;DHT22;30019;50.576;8.568;2023-02-01T13:20:19;7.10;99.90
44305;DHT22;30019;50.576;8.568;2023-02-01T13:23:18;7.20;99.90
44305;DHT22;30019;50.576;8.568;2023-02-01T13:25:51;7.20;99.90
44305;DHT22;30019;50.576;8.568;2023-02-01T13:28:34;7.20;99.90
44305;DHT22;30019;50.576;8.568;2023-02-01T13:36:30;7.30;99.90
44305;DHT22;30019;50.576;8.568;2023-02-01T13:42:19;7.40;99.90
44305;DHT22;30019;50.576;8.568;2023-02-01T13:45:04;7.20;99.90
44305;DHT22;30019;50.576;8.568;2023-02-01T13:47:35;7.20;99.90
44305;DHT22;30019;50.576;8.568;2023-02-01T13:52:55;7.20;99.90
44305;DHT22;30019;50.576;8.568;2023-02-01T13:57:49;7.10;99.90
44305;DHT22;30019;50.576;8.568;2023-02-01T14:00:35;7.00;99.90
44305;DHT22;30019;50.576;8.568;2023-02-01T14:03:06;6.90;99.90
44305;DHT22;30019;50.576;8.568;2023-02-01T14:13:36;6.70;99.90
44305;DHT22;30019;50.576;8.568;2023-02-01T14:24:01;6.90;99.90
44305;DHT22;30019;50.576;8.568;2023-02-01T14:37:04;6.90;99.90
44305;DHT22;30019;50.576;8.568;2023-02-01T14:47:45;6.70;99.90
44305;DHT22;30019;50.576;8.568;2023-02-01T14:55:41;6.60;99.90
44305;DHT22;30019;50.576;8.568;2023-02-01T15:06:26;6.20;99.90
44305;DHT22;30019;50.576;8.568;2023-02-01T15:08:55;6.00;99.90
44305;DHT22;30019;50.576;8.568;2023-02-01T15:11:22;5.90;99.90
44305;DHT22;30019;50.576;8.568;2023-02-01T15:13:50;5.80;99.90
44305;DHT22;30019;50.576;8.568;2023-02-01T15:16:17;5.70;99.90
44305;DHT22;30019;50.576;8.568;2023-02-01T15:18:43;5.70;99.90
44305;DHT22;30019;50.576;8.568;2023-02-01T15:21:20;5.70;99.90
44305;DHT22;30019;50.576;8.568;2023-02-01T15:23:46;5.70;99.90
44305;DHT22;30019;50.576;8.568;2023-02-01T15:26:31;5.70;99.90
44305;DHT22;30019;50.576;8.568;2023-02-01T15:28:58;5.60;99.90
44305;DHT22;30019;50.576;8.568;2023-02-01T15:31:35;5.60;99.90
44305;DHT22;30019;50.576;8.568;2023-02-01T15:34:01;5.50;99.90
44305;DHT22;30019;50.576;8.568;2023-02-01T15:36:27;5.50;99.90
44305;DHT22;30019;50.576;8.568;2023-02-01T15:39:14;5.40;99.90
44305;DHT22;30019;50.576;8.568;2023-02-01T15:41:58;5.30;99.90
44305;DHT22;30019;50.576;8.568;2023-02-01T15:44:33;5.30;99.90
44305;DHT22;30019;50.576;8.568;2023-02-01T15:47:04;5.30;99.90
44305;DHT22;30019;50.576;8.568;2023-02-01T15:49:32;5.20;99.90
44305;DHT22;30019;50.576;8.568;2023-02-01T15:52:02;5.20;99.90
44305;DHT22;30019;50.576;8.568;2023-02-01T15:54:31;5.20;99.90
44305;DHT22;30019;50.576;8.568;2023-02-01T15:57:01;5.20;99.90
44305;DHT22;30019;50.576;8.568;2023-02-01T15:59:45;5.10;99.90
44305;DHT22;30019;50.576;8.568;2023-02-01T16:02:32;5.10;99.90
44305;DHT22;30019;50.576;8.568;2023-02-01T16:04:58;5.10;99.90
44305;DHT22;30019;50.576;8.568;2023-02-01T16:07:32;5.10;99.90
44305;DHT22;30019;50.576;8.568;2023-02-01T16:10:00;5.10;99.90
44305;DHT22;30019;50.576;8.568;2023-02-01T16:12:44;5.10;99.90
44305;DHT22;30019;50.576;8.568;2023-02-01T16:15:11;5.10;99.90
44305;DHT22;30019;50.576;8.568;2023-02-01T16:17:36;5.10;99.90
44305;DHT22;30019;50.576;8.568;2023-02-01T16:20:02;5.10;99.90
44305;DHT22;30019;50.576;8.568;2023-02-01T16:22:27;5.00;99.90
44305;DHT22;30019;50.576;8.568;2023-02-01T16:24:53;5.00;99.90
44305;DHT22;30019;50.576;8.568;2023-02-01T16:27:18;5.00;99.90
44305;DHT22;30019;50.576;8.568;2023-02-01T16:29:46;5.00;99.90
44305;DHT22;30019;50.576;8.568;2023-02-01T16:32:18;5.00;99.90
44305;DHT22;30019;50.576;8.568;2023-02-01T16:34:45;5.10;99.90
44305;DHT22;30019;50.576;8.568;2023-02-01T16:37:21;5.00;99.90
44305;DHT22;30019;50.576;8.568;2023-02-01T16:39:47;5.00;99.90
44305;DHT22;30019;50.576;8.568;2023-02-01T16:42:14;5.10;99.90
44305;DHT22;30019;50.576;8.568;2023-02-01T16:44:40;5.10;99.90
44305;DHT22;30019;50.576;8.568;2023-02-01T16:47:16;5.10;99.90
44305;DHT22;30019;50.576;8.568;2023-02-01T16:49:43;5.10;99.90
44305;DHT22;30019;50.576;8.568;2023-02-01T16:52:16;5.10;99.90
44305;DHT22;30019;50.576;8.568;2023-02-01T16:54:42;5.20;99.90
44305;DHT22;30019;50.576;8.568;2023-02-01T16:57:12;5.20;99.90
44305;DHT22;30019;50.576;8.568;2023-02-01T16:59:39;5.20;99.90
44305;DHT22;30019;50.576;8.568;2023-02-01T17:02:04;5.30;99.90
44305;DHT22;30019;50.576;8.568;2023-02-01T17:04:30;5.30;99.90
44305;DHT22;30019;50.576;8.568;2023-02-01T17:06:55;5.30;99.90
44305;DHT22;30019;50.576;8.568;2023-02-01T17:09:23;5.30;99.90
44305;DHT22;30019;50.576;8.568;2023-02-01T17:11:50;5.30;99.90
44305;DHT22;30019;50.576;8.568;2023-02-01T17:14:19;5.30;99.90
44305;DHT22;30019;50.576;8.568;2023-02-01T17:16:47;5.40;99.90
44305;DHT22;30019;50.576;8.568;2023-02-01T17:19:15;5.40;99.90
44305;DHT22;30019;50.576;8.568;2023-02-01T17:21:47;5.40;99.90
44305;DHT22;30019;50.576;8.568;2023-02-01T17:24:16;5.40;99.90
44305;DHT22;30019;50.576;8.568;2023-02-01T17:26:43;5.50;99.90
44305;DHT22;30019;50.576;8.568;2023-02-01T17:29:09;5.40;99.90
44305;DHT22;30019;50.576;8.568;2023-02-01T17:31:47;5.40;99.90
44305;DHT22;30019;50.576;8.568;2023-02-01T17:34:14;5.40;99.90
44305;DHT22;30019;50.576;8.568;2023-02-01T17:36:41;5.40;99.90
44305;DHT22;30019;50.576;8.568;2023-02-01T17:39:07;5.40;99.90
44305;DHT22;30019;50.576;8.568;2023-02-01T17:41:33;5.40;99.90
44305;DHT22;30019;50.576;8.568;2023-02-01T17:44:00;5.40;99.90
44305;DHT22;30019;50.576;8.568;2023-02-01T17:46:25;5.40;99.90
44305;DHT22;30019;50.576;8.568;2023-02-01T17:48:53;5.40;99.90
44305;DHT22;30019;50.576;8.568;2023-02-01T17:51:21;5.30;99.90
44305;DHT22;30019;50.576;8.568;2023-02-01T17:53:48;5.30;99.90
44305;DHT22;30019;50.576;8.568;2023-02-01T17:56:18;5.20;99.90
44305;DHT22;30019;50.576;8.568;2023-02-01T17:58:44;5.20;99.90
44305;DHT22;30019;50.576;8.568;2023-02-01T18:01:22;5.20;99.90
44305;DHT22;30019;50.576;8.568;2023-02-01T18:03:48;5.20;99.90
44305;DHT22;30019;50.576;8.568;2023-02-01T18:06:15;5.10;99.90
44305;DHT22;30019;50.576;8.568;2023-02-01T18:08:42;5.10;99.90
44305;DHT22;30019;50.576;8.568;2023-02-01T18:11:17;5.10;99.90
44305;DHT22;30019;50.576;8.568;2023-02-01T18:13:44;5.20;99.90
44305;DHT22;30019;50.576;8.568;2023-02-01T18:16:32;5.10;99.90
44305;DHT22;30019;50.576;8.568;2023-02-01T18:18:58;5.20;99.90
44305;DHT22;30019;50.576;8.568;2023-02-01T18:21:31;5.20;99.90
44305;DHT22;30019;50.576;8.568;2023-02-01T18:23:59;5.30;99.90
44305;DHT22;30019;50.576;8.568;2023-02-01T18:26:25;5.20;99.90
44305;DHT22;30019;50.576;8.568;2023-02-01T18:28:50;5.30;99.90
44305;DHT22;30019;50.576;8.568;2023-02-01T18:31:25;5.30;99.90
44305;DHT22;30019;50.576;8.568;2023-02-01T18:33:53;5.20;99.90
44305;DHT22;30019;50.576;8.568;2023-02-01T18:36:20;5.20;99.90
44305;DHT22;30019;50.576;8.568;2023-02-01T18:38:45;5.40;99.90
44305;DHT22;30019;50.576;8.568;2023-02-01T18:41:13;5.40;99.90
44305;DHT22;30019;50.576;8.568;2023-02-01T18:43:40;5.40;99.90
44305;DHT22;30019;50.576;8.568;2023-02-01T18:46:08;5.40;99.90
44305;DHT22;30019;50.576;8.568;2023-02-01T18:48:33;5.40;99.90
44305;DHT22;30019;50.576;8.568;2023-02-01T18:51:00;5.50;99.90
44305;DHT22;30019;50.576;8.568;2023-02-01T18:53:25;5.60;99.90
44305;DHT22;30019;50.576;8.568;2023-02-01T18:55:57;5.60;99.90